地図

経路データ

SID SEASON NUMBER BASIN SUBBASIN NAME ISO_TIME NATURE LAT LON WMO_WIND WMO_PRES WMO_AGENCY TRACK_TYPE DIST2LAND LANDFALL IFLAG USA_AGENCY USA_ATCF_ID USA_LAT USA_LON USA_RECORD USA_STATUS USA_WIND USA_PRES USA_SSHS USA_R34_NE USA_R34_SE USA_R34_SW USA_R34_NW USA_R50_NE USA_R50_SE USA_R50_SW USA_R50_NW USA_R64_NE USA_R64_SE USA_R64_SW USA_R64_NW USA_POCI USA_ROCI USA_RMW USA_EYE TOKYO_LAT TOKYO_LON TOKYO_GRADE TOKYO_WIND TOKYO_PRES TOKYO_R50_DIR TOKYO_R50_LONG TOKYO_R50_SHORT TOKYO_R30_DIR TOKYO_R30_LONG TOKYO_R30_SHORT TOKYO_LAND CMA_LAT CMA_LON CMA_CAT CMA_WIND CMA_PRES HKO_LAT HKO_LON HKO_CAT HKO_WIND HKO_PRES NEWDELHI_LAT NEWDELHI_LON NEWDELHI_GRADE NEWDELHI_WIND NEWDELHI_PRES NEWDELHI_CI NEWDELHI_DP NEWDELHI_POCI REUNION_LAT REUNION_LON REUNION_TYPE REUNION_WIND REUNION_PRES REUNION_TNUM REUNION_CI REUNION_RMW REUNION_R34_NE REUNION_R34_SE REUNION_R34_SW REUNION_R34_NW REUNION_R50_NE REUNION_R50_SE REUNION_R50_SW REUNION_R50_NW REUNION_R64_NE REUNION_R64_SE REUNION_R64_SW REUNION_R64_NW BOM_LAT BOM_LON BOM_TYPE BOM_WIND BOM_PRES BOM_TNUM BOM_CI BOM_RMW BOM_R34_NE BOM_R34_SE BOM_R34_SW BOM_R34_NW BOM_R50_NE BOM_R50_SE BOM_R50_SW BOM_R50_NW BOM_R64_NE BOM_R64_SE BOM_R64_SW BOM_R64_NW BOM_ROCI BOM_POCI BOM_EYE BOM_POS_METHOD BOM_PRES_METHOD NADI_LAT NADI_LON NADI_CAT NADI_WIND NADI_PRES WELLINGTON_LAT WELLINGTON_LON WELLINGTON_WIND WELLINGTON_PRES DS824_LAT DS824_LON DS824_STAGE DS824_WIND DS824_PRES TD9636_LAT TD9636_LON TD9636_STAGE TD9636_WIND TD9636_PRES TD9635_LAT TD9635_LON TD9635_WIND TD9635_PRES TD9635_ROCI NEUMANN_LAT NEUMANN_LON NEUMANN_CLASS NEUMANN_WIND NEUMANN_PRES MLC_LAT MLC_LON MLC_CLASS MLC_WIND MLC_PRES USA_GUST BOM_GUST BOM_GUST_PER REUNION_GUST REUNION_GUST_PER USA_SEAHGT USA_SEARAD_NE USA_SEARAD_SE USA_SEARAD_SW USA_SEARAD_NW STORM_SPEED STORM_DIR
1942047S17150 1942 9 SP EA NOT_NAMED 1942-02-15 23:00:00 NR -17.3500 149.500 999 bom main 322 300 ______O___O___ -1 -17.2000 149.400 999 -17.5000 149.600 7 12 253
1942047S17150 1942 9 SP EA NOT_NAMED 1942-02-16 00:00:00 NR -17.4090 149.294 main 300 243 ______P___P___ -1 -17.2552 149.186 -17.5627 149.402 7 12 253
1942047S17150 1942 9 SP EA NOT_NAMED 1942-02-16 03:00:00 NR -17.5874 148.665 main 243 189 ______P___P___ -1 -17.4229 148.537 -17.7518 148.792 7 13 254
1942047S17150 1942 9 SP EA NOT_NAMED 1942-02-16 06:00:00 NR -17.7737 147.997 main 189 125 ______P___P___ -1 -17.6004 147.864 -17.9470 148.129 7 14 254
1942047S17150 1942 9 SP EA NOT_NAMED 1942-02-16 09:00:00 NR -17.9749 147.262 main 125 76 ______P___P___ -1 -17.7961 147.149 -18.1536 147.374 7 15 254
1942047S17150 1942 9 SP EA NOT_NAMED 1942-02-16 11:00:00 NR -18.1205 146.720 main 69 46 ______P___O___ -1 -17.9409 146.641 -18.3000 146.800 7 17 256
1942047S17150 1942 9 SP EA NOT_NAMED 1942-02-16 12:00:00 TS -18.1754 146.417 main 38 21 ______P__OP___ -1 -18.0185 146.375 -18.0000 146.300 TC -18.3762 146.489 7 18 258
1942047S17150 1942 9 SP EA NOT_NAMED 1942-02-16 13:00:00 TS -18.2415 146.116 bom main 10 0 ______O__PP___ -1 -18.1000 146.100 -18.0993 146.045 TC -18.4542 146.166 7 17 255
1942047S17150 1942 9 SP EA NOT_NAMED 1942-02-16 15:00:00 TS -18.4038 145.530 main 0 0 ______P__PP___ -1 -18.2740 145.531 -18.2958 145.548 TC -18.6147 145.515 7 16 252
1942047S17150 1942 9 SP EA NOT_NAMED 1942-02-16 18:00:00 TS -18.6655 144.742 main 0 0 ______P__PP___ -1 -18.5507 144.719 -18.5816 144.886 TC -18.8642 144.621 7 14 248
1942047S17150 1942 9 SP EA NOT_NAMED 1942-02-16 21:00:00 TS -18.9336 144.167 main 0 0 ______P__PP___ -1 -18.8265 144.108 -18.8514 144.405 TC -19.1228 143.988 7 10 239
1942047S17150 1942 9 SP EA NOT_NAMED 1942-02-16 23:00:00 TS -19.1066 143.977 998 bom main 0 0 ______O__PO___ -1 -19.0000 143.900 998 -19.0198 144.232 TC -19.3000 143.800 7 6 215
1942047S17150 1942 9 SP EA NOT_NAMED 1942-02-17 00:00:00 TS -19.1902 143.975 main 0 0 ______P__OP___ -1 -19.0731 143.911 -19.1000 144.200 TC 35 998 -19.3974 143.816 7 6 141
1942047S17150 1942 9 SP EA NOT_NAMED 1942-02-17 03:00:00 TS -19.4323 144.253 main 0 0 ______P__PP___ -1 -19.2722 144.257 -19.3238 144.337 TC -19.7009 144.166 7 10 119
1942047S17150 1942 9 SP EA NOT_NAMED 1942-02-17 06:00:00 TS -19.6577 144.871 main 0 0 ______P__PP___ -1 -19.4482 144.972 -19.5267 144.778 TC -19.9982 144.863 7 14 107
1942047S17150 1942 9 SP EA NOT_NAMED 1942-02-17 09:00:00 TS -19.8612 145.713 main 0 0 ______P__PP___ -1 -19.6105 145.922 -19.7135 145.456 TC -20.2596 145.761 7 17 103
1942047S17150 1942 9 SP EA NOT_NAMED 1942-02-17 11:00:00 TS -19.9825 146.343 main 0 0 ______P__PO___ -1 -19.7161 146.620 -19.8315 146.009 TC -20.4000 146.400 7 18 101
1942047S17150 1942 9 SP EA NOT_NAMED 1942-02-17 12:00:00 TS -20.0346 146.657 main 0 0 ______P__PP___ -1 -19.7695 146.974 -19.8890 146.307 TC -20.4453 146.689 7 18 99
1942047S17150 1942 9 SP EA NOT_NAMED 1942-02-17 15:00:00 TS -20.1769 147.625 main 0 0 ______P__PP___ -1 -19.9386 147.991 -20.0583 147.264 TC -20.5338 147.621 7 18 99
1942047S17150 1942 9 SP EA NOT_NAMED 1942-02-17 16:00:00 TS -20.2224 147.946 bom main 0 0 ______O__PP___ -1 -20.0000 148.300 -20.1145 147.595 TC -20.5526 147.942 7 18 99
1942047S17150 1942 9 SP EA NOT_NAMED 1942-02-17 18:00:00 TS -20.3154 148.550 main 0 0 ______P__PP___ -1 -20.1345 148.811 -20.2279 148.260 TC -20.5837 148.580 7 17 100
1942047S17150 1942 9 SP EA NOT_NAMED 1942-02-17 21:00:00 TS -20.4641 149.418 main 52 52 ______P__PP___ -1 -20.3483 149.548 -20.4054 149.227 TC -20.6385 149.478 7 16 101
1942047S17150 1942 9 SP EA NOT_NAMED 1942-02-17 23:00:00 TS -20.5775 149.941 996 bom main 91 91 ______O__PO___ -1 -20.5000 150.000 996 4 -20.5326 149.824 TC -20.7000 150.000 7 15 104
1942047S17150 1942 9 SP EA NOT_NAMED 1942-02-18 00:00:00 TS -20.6435 150.176 main 117 113 ______P__OP___ -1 -20.5816 150.210 -20.6000 150.100 TC 35 996 -20.7489 150.218 7 12 112
1942047S17150 1942 9 SP EA NOT_NAMED 1942-02-18 03:00:00 TS -20.8812 150.727 main 155 148 ______P__PP___ -1 -20.8461 150.777 -20.8694 150.629 TC -20.9281 150.775 7 11 118
1942047S17150 1942 9 SP EA NOT_NAMED 1942-02-18 06:00:00 TS -21.1482 151.191 main 154 138 ______P__PP___ -1 -21.1341 151.258 -21.1597 151.098 TC -21.1509 151.217 7 10 125
1942047S17150 1942 9 SP EA NOT_NAMED 1942-02-18 09:00:00 TS -21.4370 151.588 main 145 136 ______P__PP___ -1 -21.4373 151.667 -21.4633 151.517 TC -21.4103 151.582 7 9 130
1942047S17150 1942 9 SP EA NOT_NAMED 1942-02-18 11:00:00 TS -21.6376 151.825 main 144 136 ______P__PO___ -1 -21.6438 151.905 -21.6692 151.771 TC -21.6000 151.800 7 9 133
1942047S17150 1942 9 SP EA NOT_NAMED 1942-02-18 12:00:00 TS -21.7401 151.943 main 144 144 ______P__PP___ -1 -21.7473 152.015 -21.7723 151.891 TC -21.7008 151.921 7 9 135
1942047S17150 1942 9 SP EA NOT_NAMED 1942-02-18 15:00:00 TS -22.0540 152.267 main 160 160 ______P__PP___ -1 -22.0554 152.318 -22.0786 152.229 TC -22.0282 152.253 7 8 138
1942047S17150 1942 9 SP EA NOT_NAMED 1942-02-18 18:00:00 TS -22.3659 152.558 main 185 184 ______P__PP___ -1 -22.3527 152.588 -22.3741 152.539 TC -22.3710 152.548 7 8 139
1942047S17150 1942 9 SP EA NOT_NAMED 1942-02-18 21:00:00 TS -22.6607 152.829 main 186 183 ______P__PP___ -1 -22.6303 152.838 -22.6507 152.827 TC -22.7011 152.821 7 8 139
1942047S17150 1942 9 SP EA NOT_NAMED 1942-02-18 23:00:00 TS -22.8401 153.003 996 bom main 189 181 ______O__PO___ -1 -22.8000 153.000 996 -22.8204 153.010 TC -22.9000 153.000 7 7 136
1942047S17150 1942 9 SP EA NOT_NAMED 1942-02-19 00:00:00 TS -22.9192 153.100 main 188 180 ______P__OP___ -1 -22.8707 153.103 -22.9000 153.100 TC 35 996 -22.9870 153.096 7 7 129
1942047S17150 1942 9 SP EA NOT_NAMED 1942-02-19 03:00:00 TS -23.1277 153.392 main 190 170 ______P__PP___ -1 -23.0667 153.395 -23.0941 153.400 TC -23.2223 153.381 7 7 127
1942047S17150 1942 9 SP EA NOT_NAMED 1942-02-19 06:00:00 TS -23.3094 153.668 main 172 157 ______P__PP___ -1 -23.2414 153.668 -23.2634 153.679 TC -23.4234 153.657 7 6 125
1942047S17150 1942 9 SP EA NOT_NAMED 1942-02-19 09:00:00 TS -23.4692 153.929 main 157 156 ______P__PP___ -1 -23.3985 153.923 -23.4123 153.940 TC -23.5968 153.925 7 6 123
1942047S17150 1942 9 SP EA NOT_NAMED 1942-02-19 11:00:00 TS -23.5659 154.097 main 156 156 ______P__PO___ -1 -23.4952 154.086 -23.5024 154.106 TC -23.7000 154.100 7 5 122
1942047S17150 1942 9 SP EA NOT_NAMED 1942-02-19 12:00:00 TS -23.6132 154.180 main 162 153 ______P__PP___ -1 -23.5414 154.166 -23.5451 154.186 TC -23.7529 154.188 7 5 121
1942047S17150 1942 9 SP EA NOT_NAMED 1942-02-19 15:00:00 TS -23.7451 154.422 main 165 157 ______P__PP___ -1 -23.6736 154.398 -23.6661 154.422 TC -23.8956 154.447 7 5 120
1942047S17150 1942 9 SP EA NOT_NAMED 1942-02-19 18:00:00 TS -23.8658 154.658 main 173 173 ______P__PP___ -1 -23.7986 154.625 -23.7794 154.650 TC -24.0193 154.698 7 5 119
1942047S17150 1942 9 SP EA NOT_NAMED 1942-02-19 21:00:00 TS -23.9797 154.889 main 184 184 ______P__PP___ -1 -23.9197 154.850 -23.8893 154.875 TC -24.1302 154.942 7 5 118
1942047S17150 1942 9 SP EA NOT_NAMED 1942-02-19 23:00:00 TS -24.0543 155.042 996 bom main 188 188 ______O__PO___ -1 -24.0000 155.000 996 -23.9628 155.025 TC -24.2000 155.100 7 5 119
1942047S17150 1942 9 SP EA NOT_NAMED 1942-02-20 00:00:00 TS -24.0935 155.118 main 198 198 ______P__OP___ -1 -24.0450 155.075 -24.0000 155.100 TC 35 996 -24.2354 155.178 7 5 119
1942047S17150 1942 9 SP EA NOT_NAMED 1942-02-20 03:00:00 TS -24.2091 155.344 main 211 211 ______P__PP___ -1 -24.1769 155.295 -24.1148 155.328 TC -24.3356 155.408 7 5 119
1942047S17150 1942 9 SP EA NOT_NAMED 1942-02-20 06:00:00 TS -24.3236 155.568 main 235 231 ______P__PP___ -1 -24.3050 155.511 -24.2339 155.560 TC -24.4318 155.632 7 5 119
1942047S17150 1942 9 SP EA NOT_NAMED 1942-02-20 09:00:00 TS -24.4389 155.792 main 251 248 ______P__PP___ -1 -24.4302 155.729 -24.3565 155.795 TC -24.5301 155.853 7 5 120
1942047S17150 1942 9 SP EA NOT_NAMED 1942-02-20 11:00:00 TS -24.5174 155.943 main 258 258 ______P__PO___ -1 -24.5124 155.877 -24.4399 155.953 TC -24.6000 156.000 7 5 120
1942047S17150 1942 9 SP EA NOT_NAMED 1942-02-20 12:00:00 TS -24.5566 156.018 main 266 266 ______P__PP___ -1 -24.5533 155.953 -24.4820 156.032 TC -24.6345 156.069 7 5 120
1942047S17150 1942 9 SP EA NOT_NAMED 1942-02-20 15:00:00 TS -24.6757 156.244 main 284 284 ______P__PP___ -1 -24.6751 156.187 -24.6098 156.272 TC -24.7420 156.273 7 5 120
1942047S17150 1942 9 SP EA NOT_NAMED 1942-02-20 18:00:00 TS -24.7988 156.479 main 313 313 ______P__PP___ -1 -24.7965 156.437 -24.7392 156.513 TC -24.8606 156.486 7 5 121
1942047S17150 1942 9 SP EA NOT_NAMED 1942-02-20 21:00:00 TS -24.9334 156.726 main 332 332 ______P__PP___ -1 -24.9183 156.707 -24.8695 156.756 TC -24.9966 156.722 7 5 121
1942047S17150 1942 9 SP EA NOT_NAMED 1942-02-20 23:00:00 TS -25.0313 156.904 998 bom main 352 352 ______O__PO___ -1 -25.0000 156.900 998 -24.9565 156.919 TC -25.1000 156.900 7 6 122
1942047S17150 1942 9 SP EA NOT_NAMED 1942-02-21 00:00:00 TS -25.0906 157.000 main 362 362 ______P__OP___ -1 -25.0411 157.001 -25.0000 157.000 TC 35 998 -25.1628 156.998 7 7 122
1942047S17150 1942 9 SP EA NOT_NAMED 1942-02-21 03:00:00 NR -25.2677 157.322 main 393 393 ______P___P___ -1 -25.1653 157.322 TC -25.3702 157.321 7 7 120
1942047S17150 1942 9 SP EA NOT_NAMED 1942-02-21 06:00:00 NR -25.4385 157.671 main 434 434 ______P___P___ -1 -25.2904 157.666 TC -25.5867 157.675 7 7 117
1942047S17150 1942 9 SP EA NOT_NAMED 1942-02-21 09:00:00 NR -25.6017 158.039 main 466 466 ______P___P___ -1 -25.4162 158.031 TC -25.7873 158.047 7 7 115
1942047S17150 1942 9 SP EA NOT_NAMED 1942-02-21 11:00:00 NR -25.7001 158.292 main 498 498 ______P___O___ -1 -25.5001 158.284 TC -25.9000 158.300 7 7 113
1942047S17150 1942 9 SP EA NOT_NAMED 1942-02-21 12:00:00 NR -25.7448 158.419 main 508 508 ______P___P___ -1 -25.5421 158.413 TC -25.9475 158.426 7 7 109
1942047S17150 1942 9 SP EA NOT_NAMED 1942-02-21 15:00:00 NR -25.8625 158.805 main 550 550 ______P___P___ -1 -25.6679 158.807 TC -26.0572 158.803 7 7 107
1942047S17150 1942 9 SP EA NOT_NAMED 1942-02-21 18:00:00 NR -25.9608 159.195 main 592 592 ______P___P___ -1 -25.7931 159.212 TC -26.1284 159.178 7 7 105
1942047S17150 1942 9 SP EA NOT_NAMED 1942-02-21 21:00:00 NR -26.0465 159.588 main 631 631 ______P___P___ -1 -25.9176 159.624 TC -26.1753 159.551 7 7 103
1942047S17150 1942 9 SP EA NOT_NAMED 1942-02-21 23:00:00 NR -26.1000 159.850 999 bom main 662 ______O___O___ -1 -26.0000 159.900 999 TC -26.2000 159.800 7 7 103

デジタル台風データ・検索

IBTrACS Databaseについて

本データベースは、米国NOAAが公開する1842年以降の世界の熱帯低気圧のベストトラックデータアーカイブInternational Best Track Archive for Climate Stewardship (IBTrACS)を、ウェブで閲覧しやすい形式に変換したものです。

最終更新日:2021-11-26